Pearl, Mississippi
Current Conditions -  °F | °C
As of 5:54 AM on Tuesday 27 Jan 2015 (Local Time) from KJAN Reporting Station
Clear Clear  
Wind Chill: 42°   Ceiling: Unl
Heat Index: 42°   Visibility: 10mi
Dew Point: 34°   Wind: 0mph
Humidity: 73%   Direction: NA
Pressure: 30.04"   Gusts: NA
Location:  32.2996°N, 90.1428°W
Report Text: KJAN 271154Z 00000KT 10SM CLR 06/01 A3004 RMK AO2 SLP173 T00560011 10083 20033 53009
Loading
Personal Weather Stations






























Interactive Weather Map New forecast layout! Learn more

10-Day Weather Forecast

Advertisements
Track Severe Weather on mobile